sensor_id;sensor_type;location;lat;lon;timestamp;temperature;humidity
3156;DHT22;1588;50.892;7.082;2023-05-19T00:04:26;8.30;99.90
3156;DHT22;1588;50.892;7.082;2023-05-19T00:09:29;8.20;99.90
3156;DHT22;1588;50.892;7.082;2023-05-19T00:14:32;8.10;99.90
3156;DHT22;1588;50.892;7.082;2023-05-19T00:19:36;8.00;99.90
3156;DHT22;1588;50.892;7.082;2023-05-19T00:24:39;7.90;99.90
3156;DHT22;1588;50.892;7.082;2023-05-19T00:29:41;7.90;99.90
3156;DHT22;1588;50.892;7.082;2023-05-19T00:34:45;7.80;99.90
3156;DHT22;1588;50.892;7.082;2023-05-19T00:39:49;7.80;99.90
3156;DHT22;1588;50.892;7.082;2023-05-19T00:44:51;7.70;99.90
3156;DHT22;1588;50.892;7.082;2023-05-19T00:49:55;7.60;99.90
3156;DHT22;1588;50.892;7.082;2023-05-19T00:54:58;7.40;99.90
3156;DHT22;1588;50.892;7.082;2023-05-19T01:00:00;7.40;99.90
3156;DHT22;1588;50.892;7.082;2023-05-19T01:05:05;7.30;99.90
3156;DHT22;1588;50.892;7.082;2023-05-19T01:10:09;7.20;99.90
3156;DHT22;1588;50.892;7.082;2023-05-19T01:15:12;7.10;99.90
3156;DHT22;1588;50.892;7.082;2023-05-19T01:20:20;7.10;99.90
3156;DHT22;1588;50.892;7.082;2023-05-19T01:25:59;6.90;99.90
3156;DHT22;1588;50.892;7.082;2023-05-19T01:31:05;7.00;99.90
3156;DHT22;1588;50.892;7.082;2023-05-19T01:36:11;6.90;99.90
3156;DHT22;1588;50.892;7.082;2023-05-19T01:41:15;6.80;99.90
3156;DHT22;1588;50.892;7.082;2023-05-19T01:46:19;6.70;99.90
3156;DHT22;1588;50.892;7.082;2023-05-19T01:51:22;6.70;99.90
3156;DHT22;1588;50.892;7.082;2023-05-19T01:56:31;6.60;99.90
3156;DHT22;1588;50.892;7.082;2023-05-19T02:01:41;6.60;99.90
3156;DHT22;1588;50.892;7.082;2023-05-19T02:06:50;6.50;99.90
3156;DHT22;1588;50.892;7.082;2023-05-19T02:12:02;6.40;99.90
3156;DHT22;1588;50.892;7.082;2023-05-19T02:17:05;6.30;99.90
3156;DHT22;1588;50.892;7.082;2023-05-19T02:22:09;6.20;99.90
3156;DHT22;1588;50.892;7.082;2023-05-19T02:27:11;6.10;99.90
3156;DHT22;1588;50.892;7.082;2023-05-19T02:32:15;6.10;99.90
3156;DHT22;1588;50.892;7.082;2023-05-19T02:37:17;5.90;99.90
3156;DHT22;1588;50.892;7.082;2023-05-19T02:42:23;5.90;99.90
3156;DHT22;1588;50.892;7.082;2023-05-19T02:47:27;5.80;99.90
3156;DHT22;1588;50.892;7.082;2023-05-19T02:52:29;5.80;99.90
3156;DHT22;1588;50.892;7.082;2023-05-19T02:57:33;5.80;99.90
3156;DHT22;1588;50.892;7.082;2023-05-19T03:02:37;5.60;99.90
3156;DHT22;1588;50.892;7.082;2023-05-19T03:07:39;5.60;99.90
3156;DHT22;1588;50.892;7.082;2023-05-19T03:12:41;5.60;99.90
3156;DHT22;1588;50.892;7.082;2023-05-19T03:17:45;5.60;99.90
3156;DHT22;1588;50.892;7.082;2023-05-19T03:22:48;5.50;99.90
3156;DHT22;1588;50.892;7.082;2023-05-19T03:27:50;5.40;99.90
3156;DHT22;1588;50.892;7.082;2023-05-19T03:32:54;5.40;99.90
3156;DHT22;1588;50.892;7.082;2023-05-19T03:37:56;5.40;99.90
3156;DHT22;1588;50.892;7.082;2023-05-19T03:42:58;5.40;99.90
3156;DHT22;1588;50.892;7.082;2023-05-19T03:48:03;5.40;99.90
3156;DHT22;1588;50.892;7.082;2023-05-19T03:53:05;5.40;99.90
3156;DHT22;1588;50.892;7.082;2023-05-19T03:58:08;5.30;99.90
3156;DHT22;1588;50.892;7.082;2023-05-19T04:03:11;5.30;99.90
3156;DHT22;1588;50.892;7.082;2023-05-19T04:08:14;5.30;99.90
3156;DHT22;1588;50.892;7.082;2023-05-19T04:13:16;5.40;99.90
3156;DHT22;1588;50.892;7.082;2023-05-19T04:18:20;5.40;99.90
3156;DHT22;1588;50.892;7.082;2023-05-19T04:23:22;5.40;99.90
3156;DHT22;1588;50.892;7.082;2023-05-19T04:28:25;5.50;99.90
3156;DHT22;1588;50.892;7.082;2023-05-19T04:33:29;5.60;99.90
3156;DHT22;1588;50.892;7.082;2023-05-19T04:38:32;5.70;99.90
3156;DHT22;1588;50.892;7.082;2023-05-19T04:43:35;5.80;99.90
3156;DHT22;1588;50.892;7.082;2023-05-19T04:48:44;5.90;99.90
3156;DHT22;1588;50.892;7.082;2023-05-19T04:53:46;6.00;99.90
3156;DHT22;1588;50.892;7.082;2023-05-19T04:58:49;6.20;99.90
3156;DHT22;1588;50.892;7.082;2023-05-19T05:03:55;6.40;99.90
3156;DHT22;1588;50.892;7.082;2023-05-19T05:08:59;6.70;99.90
3156;DHT22;1588;50.892;7.082;2023-05-19T05:14:04;6.90;99.90
3156;DHT22;1588;50.892;7.082;2023-05-19T05:19:08;7.20;99.90
3156;DHT22;1588;50.892;7.082;2023-05-19T05:24:12;7.60;99.90
3156;DHT22;1588;50.892;7.082;2023-05-19T05:29:14;8.00;99.90
3156;DHT22;1588;50.892;7.082;2023-05-19T05:34:18;8.60;99.90
3156;DHT22;1588;50.892;7.082;2023-05-19T05:39:20;9.10;99.90
3156;DHT22;1588;50.892;7.082;2023-05-19T05:44:23;9.60;99.90
3156;DHT22;1588;50.892;7.082;2023-05-19T05:49:27;10.00;99.90
3156;DHT22;1588;50.892;7.082;2023-05-19T05:54:30;10.40;99.90
3156;DHT22;1588;50.892;7.082;2023-05-19T05:59:33;10.90;99.90
3156;DHT22;1588;50.892;7.082;2023-05-19T06:04:36;11.30;99.90
3156;DHT22;1588;50.892;7.082;2023-05-19T06:09:40;11.70;99.90
3156;DHT22;1588;50.892;7.082;2023-05-19T06:14:42;12.10;99.90
3156;DHT22;1588;50.892;7.082;2023-05-19T06:19:46;12.30;99.90
3156;DHT22;1588;50.892;7.082;2023-05-19T06:24:49;12.80;99.90
3156;DHT22;1588;50.892;7.082;2023-05-19T06:29:51;13.30;99.90
3156;DHT22;1588;50.892;7.082;2023-05-19T06:34:55;13.50;99.90
3156;DHT22;1588;50.892;7.082;2023-05-19T06:39:57;13.70;99.90
3156;DHT22;1588;50.892;7.082;2023-05-19T06:45:00;14.40;99.90
3156;DHT22;1588;50.892;7.082;2023-05-19T06:50:04;14.70;99.90
3156;DHT22;1588;50.892;7.082;2023-05-19T06:55:07;15.30;99.90
3156;DHT22;1588;50.892;7.082;2023-05-19T07:00:11;15.00;99.90
3156;DHT22;1588;50.892;7.082;2023-05-19T07:05:15;15.40;99.90
3156;DHT22;1588;50.892;7.082;2023-05-19T07:10:17;15.50;99.90
3156;DHT22;1588;50.892;7.082;2023-05-19T07:15:21;16.40;99.90
3156;DHT22;1588;50.892;7.082;2023-05-19T07:20:25;16.80;99.90
3156;DHT22;1588;50.892;7.082;2023-05-19T07:25:27;16.50;99.90
3156;DHT22;1588;50.892;7.082;2023-05-19T07:30:30;17.10;99.90
3156;DHT22;1588;50.892;7.082;2023-05-19T07:35:35;17.80;99.90
3156;DHT22;1588;50.892;7.082;2023-05-19T07:40:37;17.70;99.90
3156;DHT22;1588;50.892;7.082;2023-05-19T07:45:40;17.90;99.90
3156;DHT22;1588;50.892;7.082;2023-05-19T07:50:43;18.60;99.90
3156;DHT22;1588;50.892;7.082;2023-05-19T07:55:46;18.80;99.90
3156;DHT22;1588;50.892;7.082;2023-05-19T08:00:49;19.30;99.90
3156;DHT22;1588;50.892;7.082;2023-05-19T08:05:54;20.10;99.90
3156;DHT22;1588;50.892;7.082;2023-05-19T08:10:57;20.60;99.90
3156;DHT22;1588;50.892;7.082;2023-05-19T08:16:02;20.90;99.90
3156;DHT22;1588;50.892;7.082;2023-05-19T08:21:06;21.20;99.90
3156;DHT22;1588;50.892;7.082;2023-05-19T08:26:08;21.30;99.90
3156;DHT22;1588;50.892;7.082;2023-05-19T08:31:11;21.80;99.90
3156;DHT22;1588;50.892;7.082;2023-05-19T08:36:14;20.50;99.90
3156;DHT22;1588;50.892;7.082;2023-05-19T08:41:17;21.50;99.90
3156;DHT22;1588;50.892;7.082;2023-05-19T08:46:20;21.80;99.90
3156;DHT22;1588;50.892;7.082;2023-05-19T08:51:34;21.70;99.90
3156;DHT22;1588;50.892;7.082;2023-05-19T08:56:42;21.40;99.90
3156;DHT22;1588;50.892;7.082;2023-05-19T09:01:45;22.10;99.90
3156;DHT22;1588;50.892;7.082;2023-05-19T09:06:49;22.90;99.90
3156;DHT22;1588;50.892;7.082;2023-05-19T09:11:52;22.90;99.00
3156;DHT22;1588;50.892;7.082;2023-05-19T09:16:54;22.60;98.20
3156;DHT22;1588;50.892;7.082;2023-05-19T09:21:59;21.40;99.90
3156;DHT22;1588;50.892;7.082;2023-05-19T09:27:03;21.60;99.90
3156;DHT22;1588;50.892;7.082;2023-05-19T09:32:07;23.00;99.90
3156;DHT22;1588;50.892;7.082;2023-05-19T09:37:12;21.60;98.10
3156;DHT22;1588;50.892;7.082;2023-05-19T09:42:15;20.40;99.90
3156;DHT22;1588;50.892;7.082;2023-05-19T09:47:17;20.40;99.90
3156;DHT22;1588;50.892;7.082;2023-05-19T09:52:22;19.90;99.90
3156;DHT22;1588;50.892;7.082;2023-05-19T09:57:25;21.10;99.90
3156;DHT22;1588;50.892;7.082;2023-05-19T10:02:29;21.90;98.20
3156;DHT22;1588;50.892;7.082;2023-05-19T10:07:36;21.80;97.90
3156;DHT22;1588;50.892;7.082;2023-05-19T10:12:40;21.40;99.90
3156;DHT22;1588;50.892;7.082;2023-05-19T10:17:44;22.60;98.40
3156;DHT22;1588;50.892;7.082;2023-05-19T10:22:48;22.70;95.80
3156;DHT22;1588;50.892;7.082;2023-05-19T10:27:53;22.90;98.70
3156;DHT22;1588;50.892;7.082;2023-05-19T10:32:56;23.40;95.90
3156;DHT22;1588;50.892;7.082;2023-05-19T10:38:09;23.60;95.40
3156;DHT22;1588;50.892;7.082;2023-05-19T10:43:23;22.90;94.40
3156;DHT22;1588;50.892;7.082;2023-05-19T10:48:32;23.00;94.30
3156;DHT22;1588;50.892;7.082;2023-05-19T10:53:40;23.00;93.80
3156;DHT22;1588;50.892;7.082;2023-05-19T10:58:51;23.30;93.40
3156;DHT22;1588;50.892;7.082;2023-05-19T11:04:01;23.70;94.20
3156;DHT22;1588;50.892;7.082;2023-05-19T11:09:13;23.80;90.90
3156;DHT22;1588;50.892;7.082;2023-05-19T11:14:18;24.20;93.10
3156;DHT22;1588;50.892;7.082;2023-05-19T11:19:25;24.10;90.90
3156;DHT22;1588;50.892;7.082;2023-05-19T11:24:36;24.30;94.20
3156;DHT22;1588;50.892;7.082;2023-05-19T11:29:40;24.40;93.40
3156;DHT22;1588;50.892;7.082;2023-05-19T11:34:43;24.10;92.20
3156;DHT22;1588;50.892;7.082;2023-05-19T11:39:50;23.30;92.10
3156;DHT22;1588;50.892;7.082;2023-05-19T11:44:54;22.90;94.10
3156;DHT22;1588;50.892;7.082;2023-05-19T11:49:56;22.70;92.10
3156;DHT22;1588;50.892;7.082;2023-05-19T11:55:00;23.40;94.00
3156;DHT22;1588;50.892;7.082;2023-05-19T12:00:04;23.80;90.60
3156;DHT22;1588;50.892;7.082;2023-05-19T12:05:17;24.30;91.40
3156;DHT22;1588;50.892;7.082;2023-05-19T12:10:22;25.10;92.20
3156;DHT22;1588;50.892;7.082;2023-05-19T12:15:25;24.60;90.50
3156;DHT22;1588;50.892;7.082;2023-05-19T12:20:28;24.40;90.10
3156;DHT22;1588;50.892;7.082;2023-05-19T12:25:33;24.10;90.70
3156;DHT22;1588;50.892;7.082;2023-05-19T12:30:35;24.10;91.40
3156;DHT22;1588;50.892;7.082;2023-05-19T12:35:38;23.70;90.50
3156;DHT22;1588;50.892;7.082;2023-05-19T12:40:43;23.10;89.10
3156;DHT22;1588;50.892;7.082;2023-05-19T12:45:46;23.20;90.20
3156;DHT22;1588;50.892;7.082;2023-05-19T12:50:51;23.90;89.30
3156;DHT22;1588;50.892;7.082;2023-05-19T12:55:56;23.80;85.80
3156;DHT22;1588;50.892;7.082;2023-05-19T13:00:59;23.90;85.20
3156;DHT22;1588;50.892;7.082;2023-05-19T13:06:02;24.40;90.20
3156;DHT22;1588;50.892;7.082;2023-05-19T13:11:06;24.40;88.00
3156;DHT22;1588;50.892;7.082;2023-05-19T13:16:08;23.60;90.00
3156;DHT22;1588;50.892;7.082;2023-05-19T13:21:11;22.90;88.80
3156;DHT22;1588;50.892;7.082;2023-05-19T13:26:17;22.10;90.90
3156;DHT22;1588;50.892;7.082;2023-05-19T13:31:20;23.00;88.60
3156;DHT22;1588;50.892;7.082;2023-05-19T13:36:22;23.80;86.10
3156;DHT22;1588;50.892;7.082;2023-05-19T13:41:26;24.20;85.90
3156;DHT22;1588;50.892;7.082;2023-05-19T13:46:29;24.20;84.90
3156;DHT22;1588;50.892;7.082;2023-05-19T13:51:31;23.10;88.10
3156;DHT22;1588;50.892;7.082;2023-05-19T13:56:35;22.60;90.00
3156;DHT22;1588;50.892;7.082;2023-05-19T14:01:37;22.90;92.30
3156;DHT22;1588;50.892;7.082;2023-05-19T14:06:40;23.70;90.60
3156;DHT22;1588;50.892;7.082;2023-05-19T14:11:44;24.10;90.50
3156;DHT22;1588;50.892;7.082;2023-05-19T14:16:46;23.30;88.10
3156;DHT22;1588;50.892;7.082;2023-05-19T14:21:49;22.70;90.70
3156;DHT22;1588;50.892;7.082;2023-05-19T14:26:53;22.40;90.90
3156;DHT22;1588;50.892;7.082;2023-05-19T14:31:55;22.60;89.50
3156;DHT22;1588;50.892;7.082;2023-05-19T14:36:57;22.90;87.00
3156;DHT22;1588;50.892;7.082;2023-05-19T14:42:01;22.50;90.40
3156;DHT22;1588;50.892;7.082;2023-05-19T14:47:04;22.00;89.40
3156;DHT22;1588;50.892;7.082;2023-05-19T14:52:07;21.90;91.10
3156;DHT22;1588;50.892;7.082;2023-05-19T14:57:11;21.70;90.10
3156;DHT22;1588;50.892;7.082;2023-05-19T15:02:13;21.90;89.10
3156;DHT22;1588;50.892;7.082;2023-05-19T15:07:15;22.30;90.40
3156;DHT22;1588;50.892;7.082;2023-05-19T15:12:19;22.80;87.90
3156;DHT22;1588;50.892;7.082;2023-05-19T15:17:24;22.40;89.90
3156;DHT22;1588;50.892;7.082;2023-05-19T15:22:27;22.30;89.90
3156;DHT22;1588;50.892;7.082;2023-05-19T15:27:31;21.70;89.90
3156;DHT22;1588;50.892;7.082;2023-05-19T15:32:35;21.50;90.40
3156;DHT22;1588;50.892;7.082;2023-05-19T15:37:37;21.70;90.10
3156;DHT22;1588;50.892;7.082;2023-05-19T15:42:41;22.30;89.40
3156;DHT22;1588;50.892;7.082;2023-05-19T15:47:44;22.60;89.50
3156;DHT22;1588;50.892;7.082;2023-05-19T15:52:46;22.60;88.10
3156;DHT22;1588;50.892;7.082;2023-05-19T15:57:50;22.60;88.60
3156;DHT22;1588;50.892;7.082;2023-05-19T16:02:53;22.70;91.50
3156;DHT22;1588;50.892;7.082;2023-05-19T16:07:56;23.00;88.00
3156;DHT22;1588;50.892;7.082;2023-05-19T16:12:59;23.10;90.30
3156;DHT22;1588;50.892;7.082;2023-05-19T16:18:02;22.70;84.20
3156;DHT22;1588;50.892;7.082;2023-05-19T16:23:04;22.40;87.30
3156;DHT22;1588;50.892;7.082;2023-05-19T16:28:08;22.10;86.90
3156;DHT22;1588;50.892;7.082;2023-05-19T16:33:10;22.30;90.60
3156;DHT22;1588;50.892;7.082;2023-05-19T16:38:13;22.20;87.30
3156;DHT22;1588;50.892;7.082;2023-05-19T16:43:17;21.90;90.30
3156;DHT22;1588;50.892;7.082;2023-05-19T16:48:19;21.90;89.90
3156;DHT22;1588;50.892;7.082;2023-05-19T16:53:21;21.60;90.10
3156;DHT22;1588;50.892;7.082;2023-05-19T16:58:25;21.60;90.20
3156;DHT22;1588;50.892;7.082;2023-05-19T17:03:27;21.40;90.90
3156;DHT22;1588;50.892;7.082;2023-05-19T17:08:30;21.10;90.70
3156;DHT22;1588;50.892;7.082;2023-05-19T17:13:35;21.00;90.60
3156;DHT22;1588;50.892;7.082;2023-05-19T17:18:37;20.90;92.40
3156;DHT22;1588;50.892;7.082;2023-05-19T17:23:40;20.70;92.50
3156;DHT22;1588;50.892;7.082;2023-05-19T17:28:44;20.60;92.30
3156;DHT22;1588;50.892;7.082;2023-05-19T17:33:46;20.40;91.60
3156;DHT22;1588;50.892;7.082;2023-05-19T17:38:48;20.20;92.90
3156;DHT22;1588;50.892;7.082;2023-05-19T17:43:52;20.10;93.80
3156;DHT22;1588;50.892;7.082;2023-05-19T17:48:55;19.90;94.10
3156;DHT22;1588;50.892;7.082;2023-05-19T17:53:58;20.00;93.70
3156;DHT22;1588;50.892;7.082;2023-05-19T17:59:03;20.10;96.20
3156;DHT22;1588;50.892;7.082;2023-05-19T18:04:05;20.30;94.80
3156;DHT22;1588;50.892;7.082;2023-05-19T18:09:12;20.30;95.00
3156;DHT22;1588;50.892;7.082;2023-05-19T18:14:16;20.20;94.00
3156;DHT22;1588;50.892;7.082;2023-05-19T18:19:19;20.10;94.40
3156;DHT22;1588;50.892;7.082;2023-05-19T18:24:21;20.10;94.10
3156;DHT22;1588;50.892;7.082;2023-05-19T18:29:25;20.00;93.40
3156;DHT22;1588;50.892;7.082;2023-05-19T18:34:28;19.90;93.40
3156;DHT22;1588;50.892;7.082;2023-05-19T18:39:31;19.80;93.70
3156;DHT22;1588;50.892;7.082;2023-05-19T18:44:36;19.70;94.50
3156;DHT22;1588;50.892;7.082;2023-05-19T18:49:38;19.60;94.50
3156;DHT22;1588;50.892;7.082;2023-05-19T18:54:41;19.40;95.30
3156;DHT22;1588;50.892;7.082;2023-05-19T18:59:47;19.20;95.10
3156;DHT22;1588;50.892;7.082;2023-05-19T19:04:49;19.00;96.30
3156;DHT22;1588;50.892;7.082;2023-05-19T19:09:52;18.90;95.70
3156;DHT22;1588;50.892;7.082;2023-05-19T19:14:56;18.70;96.00
3156;DHT22;1588;50.892;7.082;2023-05-19T19:19:58;18.30;97.30
3156;DHT22;1588;50.892;7.082;2023-05-19T19:25:01;18.00;97.60
3156;DHT22;1588;50.892;7.082;2023-05-19T19:30:06;17.90;97.60
3156;DHT22;1588;50.892;7.082;2023-05-19T19:35:09;17.70;99.30
3156;DHT22;1588;50.892;7.082;2023-05-19T19:40:12;17.40;99.30
3156;DHT22;1588;50.892;7.082;2023-05-19T19:45:16;17.10;99.90
3156;DHT22;1588;50.892;7.082;2023-05-19T19:50:19;16.80;99.90
3156;DHT22;1588;50.892;7.082;2023-05-19T19:55:21;16.60;99.90
3156;DHT22;1588;50.892;7.082;2023-05-19T20:00:25;16.40;99.90
3156;DHT22;1588;50.892;7.082;2023-05-19T20:05:27;16.20;99.90
3156;DHT22;1588;50.892;7.082;2023-05-19T20:10:29;15.90;99.90
3156;DHT22;1588;50.892;7.082;2023-05-19T20:15:33;15.90;99.90
3156;DHT22;1588;50.892;7.082;2023-05-19T20:20:36;15.60;99.90
3156;DHT22;1588;50.892;7.082;2023-05-19T20:25:38;15.30;99.90
3156;DHT22;1588;50.892;7.082;2023-05-19T20:30:44;15.20;99.90
3156;DHT22;1588;50.892;7.082;2023-05-19T20:35:46;15.00;99.90
3156;DHT22;1588;50.892;7.082;2023-05-19T20:40:48;14.90;99.90
3156;DHT22;1588;50.892;7.082;2023-05-19T20:45:52;14.70;99.90
3156;DHT22;1588;50.892;7.082;2023-05-19T20:50:54;14.60;99.90
3156;DHT22;1588;50.892;7.082;2023-05-19T20:55:57;14.60;99.90
3156;DHT22;1588;50.892;7.082;2023-05-19T21:01:00;14.40;99.90
3156;DHT22;1588;50.892;7.082;2023-05-19T21:06:03;14.50;99.90
3156;DHT22;1588;50.892;7.082;2023-05-19T21:11:05;14.60;99.90
3156;DHT22;1588;50.892;7.082;2023-05-19T21:16:09;14.50;99.90
3156;DHT22;1588;50.892;7.082;2023-05-19T21:21:11;14.40;99.90
3156;DHT22;1588;50.892;7.082;2023-05-19T21:26:14;14.20;99.90
3156;DHT22;1588;50.892;7.082;2023-05-19T21:31:17;14.20;99.90
3156;DHT22;1588;50.892;7.082;2023-05-19T21:36:20;14.20;99.90
3156;DHT22;1588;50.892;7.082;2023-05-19T21:41:22;14.20;99.90
3156;DHT22;1588;50.892;7.082;2023-05-19T21:46:26;14.10;99.90
3156;DHT22;1588;50.892;7.082;2023-05-19T21:51:29;14.00;99.90
3156;DHT22;1588;50.892;7.082;2023-05-19T21:56:34;13.90;99.90
3156;DHT22;1588;50.892;7.082;2023-05-19T22:01:38;14.00;99.90
3156;DHT22;1588;50.892;7.082;2023-05-19T22:06:42;13.90;99.90
3156;DHT22;1588;50.892;7.082;2023-05-19T22:11:44;13.80;99.90
3156;DHT22;1588;50.892;7.082;2023-05-19T22:16:48;13.80;99.90
3156;DHT22;1588;50.892;7.082;2023-05-19T22:21:53;13.70;99.90
3156;DHT22;1588;50.892;7.082;2023-05-19T22:26:55;13.70;99.90
3156;DHT22;1588;50.892;7.082;2023-05-19T22:31:59;13.70;99.90
3156;DHT22;1588;50.892;7.082;2023-05-19T22:37:01;13.60;99.90
3156;DHT22;1588;50.892;7.082;2023-05-19T22:42:04;13.50;99.90
3156;DHT22;1588;50.892;7.082;2023-05-19T22:47:08;13.30;99.90
3156;DHT22;1588;50.892;7.082;2023-05-19T22:52:13;13.30;99.90
3156;DHT22;1588;50.892;7.082;2023-05-19T22:57:15;13.30;99.90
3156;DHT22;1588;50.892;7.082;2023-05-19T23:02:21;13.10;99.90
3156;DHT22;1588;50.892;7.082;2023-05-19T23:07:24;12.90;99.90
3156;DHT22;1588;50.892;7.082;2023-05-19T23:12:26;12.80;99.90
3156;DHT22;1588;50.892;7.082;2023-05-19T23:17:30;12.80;99.90
3156;DHT22;1588;50.892;7.082;2023-05-19T23:22:32;12.60;99.90
3156;DHT22;1588;50.892;7.082;2023-05-19T23:27:35;12.60;99.90
3156;DHT22;1588;50.892;7.082;2023-05-19T23:32:38;12.60;99.90
3156;DHT22;1588;50.892;7.082;2023-05-19T23:37:41;12.80;99.90
3156;DHT22;1588;50.892;7.082;2023-05-19T23:42:44;12.60;99.90
3156;DHT22;1588;50.892;7.082;2023-05-19T23:47:47;12.50;99.90
3156;DHT22;1588;50.892;7.082;2023-05-19T23:52:50;12.40;99.90
3156;DHT22;1588;50.892;7.082;2023-05-19T23:57:52;12.30;99.90
